Pagrindinis puslapis
METAR-TAF:

METAR-TAF

Oro uostai :

Briuselio oro uostas

Briuselis, Belgija

platuma: 50-54N, ilguma: 004-32E, Aukštis: 55 m

Dabartinis oras

Ataskaita buvo paskelbta 17 minutes, ne 16:20 UTC
Vėjas 7 kt iš Rytų/Šiaurės Rytų, svyruoja nuo Šiaurės Rytų ir Rytų
Temperatūra 19°C
Drėgmė 32%
Slėgis 1024 hPa
Matomumas 10 km arba daugiau
nėra debesų žemiau 1500 m ir nėra kamuolinių lietaus debesų

METAR: EBBR 201620Z 07007KT 040V100 CAVOK 19/02 Q1024 NOSIG

Laikas: 18:37 (16:37 UTC)

Prognozė

Ataskaita buvo paskelbta 5 valandos ir 23 minutes, ne 11:14 UTC
Prognozė galioja nuo 20 metu 12 UTC su 21 metu 18 UTC
Vėjas 7 kt iš Rytų/Pietryčių
Matomumas 10 km arba daugiau
nėra debesų žemiau 1500 m ir nėra kamuolinių lietaus debesų

TAF: EBBR 201114Z 2012/2118 11007KT CAVOK

Orai ataskaitas ir orų prognozės (METAR, TAF).

turimą stotys yra geltonos ir raudonos taškus žemėlapyje.

Perkelti pele per norėdami pamatyti stoties vardą.

Tada spustelėkite, norėdami matyti oro stebėjimo ir prognozės.

Norėdami pakeisti žemėlapį: spustelėkite ant žalios mygtukų su juodo kryžiaus žemyn,; žalią mygtuką su brūkšneliu, jei norite nutolinti; arba žalių rodyklių gretimoms žemėlapius.


METAR-TAF: